createdAt,value
2019-02-04T00:02:00.259Z,5.40
2019-02-04T00:04:30.769Z,4.23
2019-02-04T00:07:01.003Z,4.70
2019-02-04T00:09:31.292Z,4.63
2019-02-04T00:12:01.569Z,4.40
2019-02-04T00:14:31.770Z,4.70
2019-02-04T00:17:02.069Z,4.80
2019-02-04T00:19:32.327Z,4.97
2019-02-04T00:22:02.614Z,5.07
2019-02-04T00:24:33.096Z,5.03
2019-02-04T00:27:03.389Z,4.87
2019-02-04T00:29:33.658Z,4.30
2019-02-04T00:32:03.914Z,4.67
2019-02-04T00:34:34.097Z,5.07
2019-02-04T00:37:04.826Z,5.37
2019-02-04T00:39:35.028Z,5.17
2019-02-04T00:42:05.218Z,4.77
2019-02-04T00:44:35.480Z,5.20
2019-02-04T00:47:05.703Z,5.13
2019-02-04T00:49:35.988Z,4.60
2019-02-04T00:52:06.301Z,4.67
2019-02-04T00:54:36.602Z,5.37
2019-02-04T00:57:06.921Z,5.00
2019-02-04T00:59:37.117Z,4.90
2019-02-04T01:02:07.484Z,5.27
2019-02-04T01:04:38.141Z,5.10
2019-02-04T01:07:08.595Z,4.87
2019-02-04T01:09:38.803Z,5.23
2019-02-04T01:12:09.094Z,5.40
2019-02-04T01:14:39.338Z,4.93
2019-02-04T01:17:09.641Z,5.37
2019-02-04T01:19:39.961Z,5.83
2019-02-04T01:22:10.236Z,5.57
2019-02-04T01:24:40.509Z,5.73
2019-02-04T01:27:10.709Z,5.97
2019-02-04T01:29:40.989Z,6.00
2019-02-04T01:32:11.180Z,5.17
2019-02-04T01:34:41.454Z,5.50
2019-02-04T01:37:11.725Z,5.50
2019-02-04T01:39:42.005Z,5.60
2019-02-04T01:42:12.297Z,5.63
2019-02-04T01:44:42.637Z,5.83
2019-02-04T01:47:14.630Z,5.10
2019-02-04T01:49:44.777Z,5.73
2019-02-04T01:52:14.992Z,6.20
2019-02-04T01:54:45.245Z,4.90
2019-02-04T01:57:15.900Z,5.60
2019-02-04T01:59:46.086Z,5.60
2019-02-04T02:02:16.361Z,5.37
2019-02-04T02:04:46.648Z,5.63
2019-02-04T02:07:16.878Z,5.70
2019-02-04T02:09:47.624Z,5.50
2019-02-04T02:12:17.825Z,5.80
2019-02-04T02:14:48.020Z,5.80
2019-02-04T02:17:26.066Z,5.63
2019-02-04T02:19:50.188Z,5.70
2019-02-04T02:22:20.734Z,5.47
2019-02-04T02:24:50.966Z,5.53
2019-02-04T02:27:21.211Z,5.47
2019-02-04T02:29:51.561Z,5.07
2019-02-04T02:32:21.838Z,5.10
2019-02-04T02:34:52.161Z,4.80
2019-02-04T02:37:22.345Z,6.10
2019-02-04T02:39:52.633Z,5.67
2019-02-04T02:42:22.900Z,5.47
2019-02-04T02:44:53.183Z,5.90
2019-02-04T02:47:23.436Z,5.57
2019-02-04T02:49:54.124Z,5.33
2019-02-04T02:52:24.364Z,5.03
2019-02-04T02:54:54.586Z,5.37
2019-02-04T02:57:24.841Z,6.07
2019-02-04T02:59:55.155Z,5.77
2019-02-04T03:02:25.466Z,5.47
2019-02-04T03:04:55.828Z,5.87
2019-02-04T03:07:26.024Z,5.90
2019-02-04T03:09:56.260Z,5.87
2019-02-04T03:12:26.530Z,5.30
2019-02-04T03:14:56.833Z,6.37
2019-02-04T03:17:27.283Z,4.93
2019-02-04T03:19:57.601Z,5.87
2019-02-04T03:22:27.850Z,6.00
2019-02-04T03:24:58.049Z,5.43
2019-02-04T03:27:28.284Z,5.70
2019-02-04T03:29:58.959Z,5.23
2019-02-04T03:32:29.242Z,5.60
2019-02-04T03:34:59.524Z,5.83
2019-02-04T03:37:29.696Z,5.67
2019-02-04T03:40:00.012Z,5.83
2019-02-04T03:42:30.560Z,5.70
2019-02-04T03:45:00.761Z,5.47
2019-02-04T03:47:30.937Z,5.70
2019-02-04T03:50:01.213Z,5.17
2019-02-04T03:52:31.407Z,5.40
2019-02-04T03:55:01.701Z,5.70
2019-02-04T03:57:31.896Z,5.50
2019-02-04T04:00:02.186Z,5.90
2019-02-04T04:02:32.655Z,5.90
2019-02-04T04:05:02.885Z,6.07
2019-02-04T04:07:33.070Z,5.87
2019-02-04T04:10:03.612Z,5.70
2019-02-04T04:12:33.881Z,6.23
2019-02-04T04:15:04.692Z,6.03
2019-02-04T04:17:34.962Z,5.67
2019-02-04T04:20:05.880Z,6.30
2019-02-04T04:22:36.332Z,6.30
2019-02-04T04:25:07.844Z,6.00
2019-02-04T04:27:38.237Z,6.03
2019-02-04T04:30:12.656Z,6.40
2019-02-04T04:32:42.843Z,5.90
2019-02-04T04:35:13.598Z,6.13
2019-02-04T04:37:43.794Z,6.20
2019-02-04T04:40:14.265Z,6.07
2019-02-04T04:42:44.801Z,6.77
2019-02-04T04:45:17.193Z,8.33
2019-02-04T04:47:47.434Z,7.33
2019-02-04T04:50:17.855Z,6.90
2019-02-04T04:52:48.117Z,6.67
2019-02-04T04:55:23.371Z,6.83
2019-02-04T04:57:53.750Z,6.80
2019-02-04T05:00:29.018Z,7.07
2019-02-04T05:02:59.416Z,7.23
2019-02-04T05:05:29.597Z,7.13
2019-02-04T05:07:59.771Z,6.63
2019-02-04T05:10:29.975Z,7.53
2019-02-04T05:13:00.149Z,8.07
2019-02-04T05:15:30.419Z,7.87
2019-02-04T05:18:00.704Z,7.67
2019-02-04T05:20:30.908Z,7.53
2019-02-04T05:23:01.089Z,7.90
2019-02-04T05:25:31.368Z,6.77
2019-02-04T05:28:01.549Z,8.03
2019-02-04T05:30:31.761Z,6.57
2019-02-04T05:33:02.018Z,6.60
2019-02-04T05:35:32.234Z,6.43
2019-02-04T05:38:02.493Z,7.13
2019-02-04T05:40:32.779Z,7.07
2019-02-04T05:43:02.990Z,6.87
2019-02-04T05:45:33.294Z,7.13
2019-02-04T05:48:03.496Z,7.10
2019-02-04T05:50:33.784Z,7.77
2019-02-04T05:53:14.153Z,7.63
2019-02-04T05:55:46.356Z,7.57
2019-02-04T05:58:16.679Z,7.37
2019-02-04T06:00:48.965Z,7.30
2019-02-04T06:03:19.148Z,7.77
2019-02-04T06:05:49.330Z,7.50
2019-02-04T06:08:19.610Z,7.40
2019-02-04T06:10:49.816Z,7.53
2019-02-04T06:13:19.999Z,8.47
2019-02-04T06:15:50.279Z,7.30
2019-02-04T06:18:20.876Z,7.57
2019-02-04T06:20:51.066Z,7.30
2019-02-04T06:23:21.249Z,8.27
2019-02-04T06:25:51.439Z,7.30
2019-02-04T06:28:21.716Z,9.23
2019-02-04T06:30:51.942Z,8.57
2019-02-04T06:33:22.202Z,8.67
2019-02-04T06:35:52.519Z,8.40
2019-02-04T06:38:22.729Z,7.73
2019-02-04T06:40:52.944Z,8.60
2019-02-04T06:43:23.161Z,7.60
2019-02-04T06:45:53.365Z,8.57
2019-02-04T06:48:23.636Z,8.20
2019-02-04T06:50:53.940Z,7.43
2019-02-04T06:53:24.113Z,8.73
2019-02-04T06:55:54.408Z,9.00
2019-02-04T06:58:25.041Z,9.20
2019-02-04T07:00:55.334Z,8.77
2019-02-04T07:03:25.532Z,9.20
2019-02-04T07:05:55.744Z,8.30
2019-02-04T07:08:26.028Z,7.57
2019-02-04T07:10:56.423Z,8.43
2019-02-04T07:13:26.688Z,9.47
2019-02-04T07:15:56.921Z,7.90
2019-02-04T07:18:27.242Z,7.60
2019-02-04T07:20:57.537Z,8.00
2019-02-04T07:23:27.867Z,11.70
2019-02-04T07:25:58.415Z,19.13
2019-02-04T07:28:28.646Z,9.40
2019-02-04T07:30:58.925Z,8.50
2019-02-04T07:33:29.141Z,9.17
2019-02-04T07:35:59.310Z,14.87
2019-02-04T07:38:29.583Z,17.00
2019-02-04T07:41:00.059Z,11.50
2019-02-04T07:43:30.405Z,11.00
2019-02-04T07:46:00.720Z,19.07
2019-02-04T07:48:30.977Z,19.70
2019-02-04T07:51:01.205Z,13.47
2019-02-04T07:53:31.553Z,18.03
2019-02-04T07:56:01.815Z,14.53
2019-02-04T07:58:32.008Z,11.57
2019-02-04T08:01:02.371Z,9.90
2019-02-04T08:03:32.644Z,9.20
2019-02-04T08:06:02.916Z,9.30
2019-02-04T08:08:33.272Z,9.90
2019-02-04T08:11:03.536Z,9.03
2019-02-04T08:13:33.894Z,10.33
2019-02-04T08:16:04.176Z,9.43
2019-02-04T08:18:34.465Z,9.23
2019-02-04T08:21:04.953Z,10.30
2019-02-04T08:23:35.135Z,9.70
2019-02-04T08:26:05.504Z,11.17
2019-02-04T08:28:35.720Z,32.73
2019-02-04T08:31:05.959Z,23.00
2019-02-04T08:33:36.280Z,12.03
2019-02-04T08:36:06.560Z,11.20
2019-02-04T08:38:36.860Z,10.93
2019-02-04T08:41:07.151Z,10.90
2019-02-04T08:43:37.450Z,13.10
2019-02-04T08:46:07.705Z,14.73
2019-02-04T08:48:37.900Z,11.53
2019-02-04T08:51:08.158Z,10.80
2019-02-04T08:53:38.525Z,10.90
2019-02-04T08:56:08.874Z,9.70
2019-02-04T08:58:39.161Z,10.40
2019-02-04T09:01:09.437Z,10.60
2019-02-04T09:03:40.042Z,11.43
2019-02-04T09:06:11.809Z,10.70
2019-02-04T09:08:42.095Z,10.70
2019-02-04T09:11:12.405Z,27.27
2019-02-04T09:13:42.721Z,25.57
2019-02-04T09:16:12.929Z,18.27
2019-02-04T09:18:44.735Z,10.60
2019-02-04T09:21:15.140Z,9.93
2019-02-04T09:23:45.389Z,9.70
2019-02-04T09:26:15.708Z,11.00
2019-02-04T09:28:45.993Z,28.73
2019-02-04T09:31:16.339Z,22.33
2019-02-04T09:33:46.550Z,12.13
2019-02-04T09:36:16.816Z,11.87
2019-02-04T09:38:47.071Z,17.43
2019-02-04T09:41:17.318Z,35.67
2019-02-04T09:43:47.541Z,15.73
2019-02-04T09:46:17.938Z,12.60
2019-02-04T09:48:48.193Z,11.40
2019-02-04T09:51:18.415Z,11.60
2019-02-04T09:53:48.610Z,16.20
2019-02-04T09:56:18.837Z,16.00
2019-02-04T09:58:49.013Z,13.80
2019-02-04T10:01:19.301Z,11.67
2019-02-04T10:03:49.516Z,10.23
2019-02-04T10:06:19.832Z,10.33
2019-02-04T10:08:50.052Z,10.10
2019-02-04T10:11:20.408Z,10.33
2019-02-04T10:13:50.849Z,9.70
2019-02-04T10:16:21.098Z,10.73
2019-02-04T10:18:51.422Z,9.10
2019-02-04T10:21:21.642Z,8.53
2019-02-04T10:23:51.919Z,9.10
2019-02-04T10:26:22.502Z,8.27
2019-02-04T10:28:52.808Z,8.40
2019-02-04T10:31:23.182Z,8.80
2019-02-04T10:33:53.462Z,9.40
2019-02-04T10:36:23.755Z,8.23
2019-02-04T10:38:54.134Z,10.03
2019-02-04T10:41:24.526Z,10.13
2019-02-04T10:43:54.927Z,8.27
2019-02-04T10:46:25.235Z,7.60
2019-02-04T10:48:55.575Z,7.00
2019-02-04T10:51:25.957Z,29.80
2019-02-04T10:53:56.308Z,7.00
2019-02-04T10:56:26.783Z,7.57
2019-02-04T10:58:57.197Z,6.50
2019-02-04T11:01:27.466Z,6.73
2019-02-04T11:03:57.821Z,7.57
2019-02-04T11:06:28.169Z,12.43
2019-02-04T11:08:58.417Z,7.33
2019-02-04T11:11:28.652Z,6.37
2019-02-04T11:13:58.934Z,5.63
2019-02-04T11:16:29.187Z,5.60
2019-02-04T11:18:59.567Z,5.13
2019-02-04T11:21:30.001Z,5.03
2019-02-04T11:24:00.303Z,4.30
2019-02-04T11:26:30.582Z,4.97
2019-02-04T11:29:00.891Z,4.80
2019-02-04T11:31:31.234Z,5.47
2019-02-04T11:34:01.940Z,5.37
2019-02-04T11:36:33.067Z,4.93
2019-02-04T11:39:04.090Z,5.90
2019-02-04T11:41:34.424Z,5.93
2019-02-04T11:44:04.851Z,5.20
2019-02-04T11:46:35.189Z,6.97
2019-02-04T11:49:05.636Z,5.03
2019-02-04T11:51:35.840Z,5.30
2019-02-04T11:54:06.126Z,5.30
2019-02-04T11:56:36.389Z,5.10
2019-02-04T11:59:06.696Z,5.23
2019-02-04T12:01:37.054Z,5.27
2019-02-04T12:04:07.414Z,5.90
2019-02-04T12:06:37.745Z,5.50
2019-02-04T12:09:09.473Z,5.57
2019-02-04T12:11:39.722Z,4.90
2019-02-04T12:14:10.370Z,5.00
2019-02-04T12:16:40.648Z,4.07
2019-02-04T12:19:10.915Z,3.97
2019-02-04T12:21:41.342Z,4.13
2019-02-04T12:24:11.530Z,4.40
2019-02-04T12:26:41.772Z,4.47
2019-02-04T12:29:11.975Z,4.30
2019-02-04T12:31:45.129Z,4.40
2019-02-04T12:34:15.325Z,5.43
2019-02-04T12:36:45.589Z,4.93
2019-02-04T12:39:23.075Z,5.50
2019-02-04T12:41:53.452Z,6.30
2019-02-04T12:44:23.710Z,6.23
2019-02-04T12:46:53.981Z,5.90
2019-02-04T12:49:24.248Z,5.20
2019-02-04T12:51:54.535Z,5.57
2019-02-04T12:54:26.739Z,4.87
2019-02-04T12:56:57.141Z,4.80
2019-02-04T12:59:27.469Z,4.60
2019-02-04T13:01:57.757Z,4.57
2019-02-04T13:04:27.953Z,4.40
2019-02-04T13:06:58.519Z,4.80
2019-02-04T13:09:28.786Z,5.10
2019-02-04T13:11:59.085Z,5.60
2019-02-04T13:14:29.370Z,6.28
2019-02-04T13:16:59.644Z,5.60
2019-02-04T13:19:29.896Z,5.57
2019-02-04T13:22:00.185Z,6.20
2019-02-04T13:24:30.363Z,5.87
2019-02-04T13:27:00.620Z,6.00
2019-02-04T13:29:30.957Z,6.13
2019-02-04T13:32:01.277Z,5.93
2019-02-04T13:34:31.694Z,6.23
2019-02-04T13:37:01.898Z,6.97
2019-02-04T13:39:32.185Z,6.77
2019-02-04T13:42:02.395Z,7.20
2019-02-04T13:44:32.687Z,6.70
2019-02-04T13:47:05.706Z,7.00
2019-02-04T13:49:35.396Z,7.07
2019-02-04T13:52:05.589Z,6.93
2019-02-04T13:54:35.908Z,6.70
2019-02-04T13:57:06.403Z,6.60
2019-02-04T13:59:36.737Z,7.00
2019-02-04T14:02:07.015Z,7.27
2019-02-04T14:04:37.222Z,7.00
2019-02-04T14:07:07.396Z,6.97
2019-02-04T14:09:37.669Z,7.53
2019-02-04T14:12:07.928Z,7.97
2019-02-04T14:14:38.187Z,7.50
2019-02-04T14:17:08.439Z,6.73
2019-02-04T14:19:38.767Z,5.93
2019-02-04T14:22:09.732Z,6.87
2019-02-04T14:24:40.028Z,7.20
2019-02-04T14:27:10.579Z,6.57
2019-02-04T14:29:40.786Z,5.90
2019-02-04T14:32:11.062Z,5.80
2019-02-04T14:34:41.260Z,5.93
2019-02-04T14:37:11.509Z,5.60
2019-02-04T14:39:42.132Z,7.10
2019-02-04T14:42:16.197Z,6.20
2019-02-04T14:45:08.324Z,5.73
2019-02-04T14:48:03.225Z,6.77
2019-02-04T14:50:40.847Z,5.57
2019-02-04T14:54:03.918Z,5.40
2019-02-04T14:56:56.885Z,5.60
2019-02-04T14:59:51.823Z,6.20
2019-02-04T15:02:58.227Z,6.37
2019-02-04T15:05:56.744Z,5.83
2019-02-04T15:08:56.281Z,6.50
2019-02-04T15:11:47.353Z,5.70
2019-02-04T15:15:03.246Z,6.20
2019-02-04T15:17:53.268Z,6.90
2019-02-04T15:21:03.337Z,5.73
2019-02-04T15:24:08.472Z,6.30
2019-02-04T15:27:07.698Z,5.40
2019-02-04T15:29:47.059Z,5.07
2019-02-04T15:33:03.144Z,5.43
2019-02-04T15:36:10.194Z,5.37
2019-02-04T15:38:54.913Z,6.10
2019-02-04T15:42:32.310Z,6.20
2019-02-04T15:45:10.757Z,5.77
2019-02-04T15:47:49.419Z,6.13
2019-02-04T15:51:02.371Z,6.23
2019-02-04T15:53:32.628Z,5.57
2019-02-04T15:56:03.215Z,5.93
2019-02-04T15:58:33.619Z,6.33
2019-02-04T16:01:04.800Z,5.70
2019-02-04T16:03:35.285Z,5.77
2019-02-04T16:06:05.722Z,5.87
2019-02-04T16:08:35.928Z,5.73
2019-02-04T16:11:06.508Z,6.30
2019-02-04T16:13:36.823Z,6.87
2019-02-04T16:16:07.137Z,6.93
2019-02-04T16:18:37.405Z,5.90
2019-02-04T16:21:07.707Z,6.03
2019-02-04T16:23:38.050Z,6.40
2019-02-04T16:26:09.409Z,6.47
2019-02-04T16:28:39.626Z,6.20
2019-02-04T16:31:10.228Z,6.83
2019-02-04T16:33:41.972Z,5.90
2019-02-04T16:36:12.243Z,6.20
2019-02-04T16:38:42.703Z,5.73
2019-02-04T16:41:12.973Z,6.40
2019-02-04T16:43:43.345Z,6.50
2019-02-04T16:46:14.440Z,6.67
2019-02-04T16:48:45.480Z,7.10
2019-02-04T16:51:15.790Z,7.10
2019-02-04T16:53:46.056Z,6.50
2019-02-04T16:56:16.259Z,7.30
2019-02-04T16:58:46.605Z,7.73
2019-02-04T17:01:16.935Z,7.23
2019-02-04T17:03:48.350Z,7.23
2019-02-04T17:06:18.701Z,7.13
2019-02-04T17:08:48.996Z,7.23
2019-02-04T17:11:19.285Z,8.00
2019-02-04T17:13:50.697Z,7.57
2019-02-04T17:16:21.021Z,8.60
2019-02-04T17:18:51.642Z,8.83
2019-02-04T17:21:21.942Z,8.03
2019-02-04T17:23:52.239Z,8.93
2019-02-04T17:26:22.644Z,8.60
2019-02-04T17:28:52.925Z,8.87
2019-02-04T17:31:23.270Z,8.57
2019-02-04T17:33:53.499Z,8.47
2019-02-04T17:36:23.713Z,8.20
2019-02-04T17:38:53.928Z,9.67
2019-02-04T17:41:24.254Z,8.37
2019-02-04T17:43:54.548Z,9.33
2019-02-04T17:46:25.157Z,9.70
2019-02-04T17:48:55.449Z,8.67
2019-02-04T17:51:25.717Z,9.27
2019-02-04T17:53:56.074Z,9.23
2019-02-04T17:56:26.340Z,9.70
2019-02-04T17:58:56.623Z,9.03
2019-02-04T18:01:26.898Z,9.97
2019-02-04T18:03:58.085Z,8.47
2019-02-04T18:06:31.448Z,9.17
2019-02-04T18:09:00.433Z,9.57
2019-02-04T18:11:30.696Z,9.93
2019-02-04T18:14:01.113Z,9.77
2019-02-04T18:16:32.077Z,9.63
2019-02-04T18:19:02.380Z,8.70
2019-02-04T18:21:33.320Z,11.03
2019-02-04T18:24:03.675Z,9.80
2019-02-04T18:26:34.004Z,10.60
2019-02-04T18:29:04.441Z,14.07
2019-02-04T18:31:34.719Z,9.97
2019-02-04T18:34:05.501Z,9.83
2019-02-04T18:36:35.754Z,11.93
2019-02-04T18:39:09.510Z,12.00
2019-02-04T18:41:39.721Z,10.03
2019-02-04T18:44:10.178Z,11.10
2019-02-04T18:46:40.726Z,9.90
2019-02-04T18:49:11.121Z,10.90
2019-02-04T18:51:41.481Z,10.53
2019-02-04T18:54:11.805Z,10.83
2019-02-04T18:56:42.124Z,10.30
2019-02-04T18:59:12.474Z,10.33
2019-02-04T19:01:42.686Z,11.50
2019-02-04T19:04:15.619Z,22.03
2019-02-04T19:06:47.776Z,15.47
2019-02-04T19:09:17.277Z,11.87
2019-02-04T19:11:47.655Z,10.97
2019-02-04T19:14:17.982Z,10.33
2019-02-04T19:16:48.400Z,9.43
2019-02-04T19:19:18.714Z,9.33
2019-02-04T19:21:49.013Z,10.17
2019-02-04T19:24:19.321Z,9.70
2019-02-04T19:26:49.611Z,11.00
2019-02-04T19:29:19.991Z,9.17
2019-02-04T19:31:50.537Z,9.60
2019-02-04T19:34:20.874Z,10.47
2019-02-04T19:36:51.136Z,11.07
2019-02-04T19:39:21.396Z,10.17
2019-02-04T19:41:51.669Z,10.37
2019-02-04T19:44:21.909Z,10.17
2019-02-04T19:46:52.154Z,9.80
2019-02-04T19:49:22.456Z,9.77
2019-02-04T19:51:55.207Z,9.80
2019-02-04T19:54:24.744Z,9.63
2019-02-04T19:56:55.039Z,11.00
2019-02-04T19:59:25.458Z,9.87
2019-02-04T20:01:55.849Z,10.17
2019-02-04T20:04:26.139Z,9.83
2019-02-04T20:06:56.456Z,10.47
2019-02-04T20:09:26.808Z,9.83
2019-02-04T20:11:57.113Z,10.60
2019-02-04T20:14:27.325Z,12.03
2019-02-04T20:16:57.557Z,10.60
2019-02-04T20:19:27.906Z,10.37
2019-02-04T20:21:58.240Z,11.20
2019-02-04T20:24:33.359Z,11.97
2019-02-04T20:27:00.529Z,11.67
2019-02-04T20:29:30.870Z,11.53
2019-02-04T20:32:01.149Z,11.37
2019-02-04T20:34:31.520Z,11.03
2019-02-04T20:37:01.837Z,11.40
2019-02-04T20:39:32.036Z,11.00
2019-02-04T20:42:02.413Z,12.10
2019-02-04T20:44:32.734Z,11.53
2019-02-04T20:47:03.105Z,11.10
2019-02-04T20:49:33.434Z,11.10
2019-02-04T20:52:03.734Z,11.60
2019-02-04T20:54:44.736Z,11.07
2019-02-04T20:57:06.381Z,11.67
2019-02-04T20:59:36.649Z,11.90
2019-02-04T21:02:06.938Z,11.50
2019-02-04T21:04:37.246Z,11.60
2019-02-04T21:07:08.266Z,12.00
2019-02-04T21:09:38.681Z,12.67
2019-02-04T21:12:09.041Z,11.83
2019-02-04T21:14:44.580Z,12.07
2019-02-04T21:17:14.877Z,11.63
2019-02-04T21:19:45.353Z,12.40
2019-02-04T21:22:15.769Z,13.57
2019-02-04T21:24:56.050Z,12.37
2019-02-04T21:27:18.096Z,11.60
2019-02-04T21:29:50.699Z,11.80
2019-02-04T21:32:21.019Z,14.73
2019-02-04T21:34:53.390Z,13.27
2019-02-04T21:37:23.789Z,11.93
2019-02-04T21:39:54.057Z,12.80
2019-02-04T21:42:24.417Z,12.90
2019-02-04T21:44:54.931Z,15.40
2019-02-04T21:47:25.556Z,14.60
2019-02-04T21:49:55.786Z,14.70
2019-02-04T21:52:26.228Z,14.57
2019-02-04T21:55:07.765Z,13.20
2019-02-04T21:57:28.676Z,13.57
2019-02-04T21:59:59.328Z,13.67
2019-02-04T22:02:29.594Z,12.63
2019-02-04T22:04:59.856Z,13.63
2019-02-04T22:07:30.171Z,13.00
2019-02-04T22:10:00.465Z,13.37
2019-02-04T22:12:31.084Z,13.00
2019-02-04T22:15:01.285Z,13.40
2019-02-04T22:17:31.887Z,13.13
2019-02-04T22:20:02.216Z,13.07
2019-02-04T22:22:32.777Z,13.60
2019-02-04T22:25:03.112Z,13.77
2019-02-04T22:27:33.773Z,12.67
2019-02-04T22:30:04.883Z,12.63
2019-02-04T22:32:35.453Z,13.27
2019-02-04T22:35:06.281Z,12.93
2019-02-04T22:37:36.745Z,13.90
2019-02-04T22:40:09.293Z,12.80
2019-02-04T22:42:39.881Z,14.27
2019-02-04T22:45:10.824Z,13.93
2019-02-04T22:47:41.113Z,13.97
2019-02-04T22:50:14.919Z,13.33
2019-02-04T22:52:45.443Z,13.40
2019-02-04T22:55:16.216Z,13.27
2019-02-04T22:57:46.512Z,13.30
2019-02-04T23:00:42.867Z,12.60
2019-02-04T23:03:13.571Z,13.47
2019-02-04T23:05:43.823Z,12.63
2019-02-04T23:08:14.125Z,13.87
2019-02-04T23:10:44.321Z,13.50
2019-02-04T23:13:14.612Z,13.53
2019-02-04T23:15:44.921Z,12.77
2019-02-04T23:18:15.600Z,12.77
2019-02-04T23:20:45.986Z,13.83
2019-02-04T23:23:16.290Z,13.43
2019-02-04T23:25:46.578Z,12.70
2019-02-04T23:28:16.928Z,12.17
2019-02-04T23:30:47.589Z,13.53
2019-02-04T23:33:17.933Z,12.63
2019-02-04T23:35:48.162Z,12.93
2019-02-04T23:38:18.478Z,13.30
2019-02-04T23:40:48.774Z,12.77
2019-02-04T23:43:19.097Z,12.57
2019-02-04T23:45:50.577Z,13.37
2019-02-04T23:48:20.913Z,12.43
2019-02-04T23:50:51.121Z,13.17
2019-02-04T23:53:21.424Z,12.47
2019-02-04T23:55:54.732Z,12.07
2019-02-04T23:58:23.704Z,12.13
